sensor_id;sensor_type;location;lat;lon;timestamp;P1;durP1;ratioP1;P2;durP2;ratioP2
3309;SDS011;1667;53.238;10.394;2023-05-25T00:02:13;6.40;;;5.67;;
3309;SDS011;1667;53.238;10.394;2023-05-25T00:07:13;14.00;;;9.70;;
3309;SDS011;1667;53.238;10.394;2023-05-25T00:12:12;14.93;;;7.47;;
3309;SDS011;1667;53.238;10.394;2023-05-25T00:17:11;6.70;;;4.90;;
3309;SDS011;1667;53.238;10.394;2023-05-25T00:28:00;10.43;;;6.10;;
3309;SDS011;1667;53.238;10.394;2023-05-25T00:33:00;16.83;;;7.50;;
3309;SDS011;1667;53.238;10.394;2023-05-25T00:37:59;8.83;;;5.10;;
3309;SDS011;1667;53.238;10.394;2023-05-25T00:42:58;11.43;;;6.77;;
3309;SDS011;1667;53.238;10.394;2023-05-25T00:47:58;10.70;;;5.97;;
3309;SDS011;1667;53.238;10.394;2023-05-25T00:52:57;12.73;;;6.10;;
3309;SDS011;1667;53.238;10.394;2023-05-25T00:57:56;15.83;;;9.20;;
3309;SDS011;1667;53.238;10.394;2023-05-25T01:03:02;9.07;;;5.27;;
3309;SDS011;1667;53.238;10.394;2023-05-25T01:08:07;8.97;;;5.57;;
3309;SDS011;1667;53.238;10.394;2023-05-25T01:13:08;11.50;;;6.43;;
3309;SDS011;1667;53.238;10.394;2023-05-25T01:18:30;13.30;;;7.50;;
3309;SDS011;1667;53.238;10.394;2023-05-25T01:23:32;9.30;;;6.17;;
3309;SDS011;1667;53.238;10.394;2023-05-25T01:28:34;10.67;;;5.30;;
3309;SDS011;1667;53.238;10.394;2023-05-25T01:33:36;16.60;;;7.60;;
3309;SDS011;1667;53.238;10.394;2023-05-25T01:38:37;8.53;;;6.00;;
3309;SDS011;1667;53.238;10.394;2023-05-25T01:43:35;13.37;;;5.77;;
3309;SDS011;1667;53.238;10.394;2023-05-25T01:48:36;13.70;;;5.77;;
3309;SDS011;1667;53.238;10.394;2023-05-25T01:53:44;8.13;;;5.27;;
3309;SDS011;1667;53.238;10.394;2023-05-25T01:58:49;9.03;;;5.10;;
3309;SDS011;1667;53.238;10.394;2023-05-25T02:03:48;8.60;;;5.50;;
3309;SDS011;1667;53.238;10.394;2023-05-25T02:08:49;7.57;;;5.40;;
3309;SDS011;1667;53.238;10.394;2023-05-25T02:13:47;9.20;;;5.27;;
3309;SDS011;1667;53.238;10.394;2023-05-25T02:18:46;9.67;;;5.27;;
3309;SDS011;1667;53.238;10.394;2023-05-25T02:23:46;9.97;;;4.77;;
3309;SDS011;1667;53.238;10.394;2023-05-25T02:28:46;8.80;;;4.70;;
3309;SDS011;1667;53.238;10.394;2023-05-25T02:33:46;13.70;;;5.10;;
3309;SDS011;1667;53.238;10.394;2023-05-25T02:38:44;14.10;;;5.00;;
3309;SDS011;1667;53.238;10.394;2023-05-25T02:43:47;18.57;;;6.20;;
3309;SDS011;1667;53.238;10.394;2023-05-25T02:48:46;11.50;;;5.50;;
3309;SDS011;1667;53.238;10.394;2023-05-25T02:53:45;14.50;;;6.80;;
3309;SDS011;1667;53.238;10.394;2023-05-25T02:58:44;14.73;;;6.83;;
3309;SDS011;1667;53.238;10.394;2023-05-25T03:03:48;17.00;;;8.07;;
3309;SDS011;1667;53.238;10.394;2023-05-25T03:08:50;14.67;;;6.17;;
3309;SDS011;1667;53.238;10.394;2023-05-25T03:13:50;17.07;;;4.70;;
3309;SDS011;1667;53.238;10.394;2023-05-25T03:18:51;9.43;;;4.90;;
3309;SDS011;1667;53.238;10.394;2023-05-25T03:23:51;9.60;;;5.00;;
3309;SDS011;1667;53.238;10.394;2023-05-25T03:28:50;11.57;;;5.33;;
3309;SDS011;1667;53.238;10.394;2023-05-25T03:33:48;11.63;;;5.67;;
3309;SDS011;1667;53.238;10.394;2023-05-25T03:38:50;12.00;;;6.57;;
3309;SDS011;1667;53.238;10.394;2023-05-25T03:43:48;16.90;;;5.97;;
3309;SDS011;1667;53.238;10.394;2023-05-25T03:48:48;10.43;;;4.90;;
3309;SDS011;1667;53.238;10.394;2023-05-25T03:53:47;11.40;;;4.50;;
3309;SDS011;1667;53.238;10.394;2023-05-25T03:58:46;10.53;;;4.37;;
3309;SDS011;1667;53.238;10.394;2023-05-25T04:03:47;9.53;;;4.80;;
3309;SDS011;1667;53.238;10.394;2023-05-25T04:08:45;9.30;;;5.30;;
3309;SDS011;1667;53.238;10.394;2023-05-25T04:13:44;12.23;;;5.20;;
3309;SDS011;1667;53.238;10.394;2023-05-25T04:18:44;13.80;;;7.13;;
3309;SDS011;1667;53.238;10.394;2023-05-25T04:23:43;14.50;;;7.80;;
3309;SDS011;1667;53.238;10.394;2023-05-25T04:28:43;15.57;;;8.57;;
3309;SDS011;1667;53.238;10.394;2023-05-25T04:33:49;12.70;;;8.10;;
3309;SDS011;1667;53.238;10.394;2023-05-25T04:38:52;24.60;;;10.60;;
3309;SDS011;1667;53.238;10.394;2023-05-25T04:43:52;21.83;;;10.50;;
3309;SDS011;1667;53.238;10.394;2023-05-25T04:49:09;16.40;;;7.10;;
3309;SDS011;1667;53.238;10.394;2023-05-25T04:54:08;25.00;;;10.37;;
3309;SDS011;1667;53.238;10.394;2023-05-25T04:59:08;22.37;;;11.33;;
3309;SDS011;1667;53.238;10.394;2023-05-25T05:04:08;21.23;;;12.43;;
3309;SDS011;1667;53.238;10.394;2023-05-25T05:09:07;22.03;;;11.77;;
3309;SDS011;1667;53.238;10.394;2023-05-25T05:14:06;17.77;;;11.67;;
3309;SDS011;1667;53.238;10.394;2023-05-25T05:19:05;24.53;;;14.90;;
3309;SDS011;1667;53.238;10.394;2023-05-25T05:24:05;21.67;;;10.33;;
3309;SDS011;1667;53.238;10.394;2023-05-25T05:29:04;25.73;;;13.57;;
3309;SDS011;1667;53.238;10.394;2023-05-25T05:34:04;16.40;;;9.37;;
3309;SDS011;1667;53.238;10.394;2023-05-25T05:39:05;19.40;;;11.50;;
3309;SDS011;1667;53.238;10.394;2023-05-25T05:44:03;20.63;;;12.70;;
3309;SDS011;1667;53.238;10.394;2023-05-25T05:49:02;13.83;;;8.70;;
3309;SDS011;1667;53.238;10.394;2023-05-25T05:54:01;18.60;;;10.70;;
3309;SDS011;1667;53.238;10.394;2023-05-25T05:59:01;12.50;;;9.10;;
3309;SDS011;1667;53.238;10.394;2023-05-25T06:04:00;16.30;;;10.40;;
3309;SDS011;1667;53.238;10.394;2023-05-25T06:08:59;13.40;;;7.20;;
3309;SDS011;1667;53.238;10.394;2023-05-25T06:14:00;13.47;;;8.30;;
3309;SDS011;1667;53.238;10.394;2023-05-25T06:18:59;21.50;;;9.27;;
3309;SDS011;1667;53.238;10.394;2023-05-25T06:23:58;15.67;;;9.47;;
3309;SDS011;1667;53.238;10.394;2023-05-25T06:28:56;13.30;;;8.20;;
3309;SDS011;1667;53.238;10.394;2023-05-25T06:33:57;16.07;;;9.70;;
3309;SDS011;1667;53.238;10.394;2023-05-25T06:38:55;16.33;;;7.40;;
3309;SDS011;1667;53.238;10.394;2023-05-25T06:43:54;9.33;;;7.30;;
3309;SDS011;1667;53.238;10.394;2023-05-25T06:49:10;8.37;;;6.33;;
3309;SDS011;1667;53.238;10.394;2023-05-25T06:54:09;11.87;;;6.63;;
3309;SDS011;1667;53.238;10.394;2023-05-25T06:59:10;4.00;;;3.70;;
3309;SDS011;1667;53.238;10.394;2023-05-25T07:04:10;15.87;;;6.10;;
3309;SDS011;1667;53.238;10.394;2023-05-25T07:09:08;12.10;;;5.83;;
3309;SDS011;1667;53.238;10.394;2023-05-25T07:14:07;10.23;;;5.37;;
3309;SDS011;1667;53.238;10.394;2023-05-25T07:19:06;15.77;;;6.07;;
3309;SDS011;1667;53.238;10.394;2023-05-25T07:24:06;11.43;;;5.10;;
3309;SDS011;1667;53.238;10.394;2023-05-25T07:29:04;9.00;;;5.03;;
3309;SDS011;1667;53.238;10.394;2023-05-25T07:34:03;11.77;;;5.30;;
3309;SDS011;1667;53.238;10.394;2023-05-25T07:39:01;7.17;;;4.40;;
3309;SDS011;1667;53.238;10.394;2023-05-25T07:44:01;4.93;;;3.70;;
3309;SDS011;1667;53.238;10.394;2023-05-25T07:49:00;9.67;;;3.20;;
3309;SDS011;1667;53.238;10.394;2023-05-25T07:53:59;9.20;;;3.80;;
3309;SDS011;1667;53.238;10.394;2023-05-25T07:58:57;5.00;;;3.80;;
3309;SDS011;1667;53.238;10.394;2023-05-25T08:03:58;9.07;;;4.30;;
3309;SDS011;1667;53.238;10.394;2023-05-25T08:08:56;8.93;;;4.60;;
3309;SDS011;1667;53.238;10.394;2023-05-25T08:13:55;10.53;;;5.60;;
3309;SDS011;1667;53.238;10.394;2023-05-25T08:18:55;5.33;;;4.00;;
3309;SDS011;1667;53.238;10.394;2023-05-25T08:23:57;8.37;;;4.37;;
3309;SDS011;1667;53.238;10.394;2023-05-25T08:28:59;11.07;;;6.20;;
3309;SDS011;1667;53.238;10.394;2023-05-25T08:33:59;4.27;;;3.40;;
3309;SDS011;1667;53.238;10.394;2023-05-25T08:38:58;8.77;;;4.23;;
3309;SDS011;1667;53.238;10.394;2023-05-25T08:43:57;7.17;;;5.70;;
3309;SDS011;1667;53.238;10.394;2023-05-25T08:49:05;5.63;;;3.90;;
3309;SDS011;1667;53.238;10.394;2023-05-25T08:54:07;15.70;;;4.80;;
3309;SDS011;1667;53.238;10.394;2023-05-25T08:59:08;9.10;;;4.60;;
3309;SDS011;1667;53.238;10.394;2023-05-25T09:04:16;14.37;;;3.97;;
3309;SDS011;1667;53.238;10.394;2023-05-25T09:09:15;5.37;;;3.60;;
3309;SDS011;1667;53.238;10.394;2023-05-25T09:14:15;5.40;;;3.10;;
3309;SDS011;1667;53.238;10.394;2023-05-25T09:26:09;5.07;;;4.27;;
3309;SDS011;1667;53.238;10.394;2023-05-25T09:31:09;10.93;;;4.90;;
3309;SDS011;1667;53.238;10.394;2023-05-25T09:36:07;12.57;;;4.27;;
3309;SDS011;1667;53.238;10.394;2023-05-25T09:41:06;14.33;;;4.17;;
3309;SDS011;1667;53.238;10.394;2023-05-25T09:46:06;7.40;;;2.80;;
3309;SDS011;1667;53.238;10.394;2023-05-25T09:51:05;7.17;;;3.30;;
3309;SDS011;1667;53.238;10.394;2023-05-25T10:01:03;7.53;;;2.40;;
3309;SDS011;1667;53.238;10.394;2023-05-25T10:06:03;3.27;;;2.30;;
3309;SDS011;1667;53.238;10.394;2023-05-25T10:11:02;9.37;;;3.10;;
3309;SDS011;1667;53.238;10.394;2023-05-25T10:16:02;7.23;;;2.23;;
3309;SDS011;1667;53.238;10.394;2023-05-25T10:21:04;9.13;;;3.20;;
3309;SDS011;1667;53.238;10.394;2023-05-25T10:26:06;5.43;;;2.40;;
3309;SDS011;1667;53.238;10.394;2023-05-25T10:31:06;11.50;;;3.47;;
3309;SDS011;1667;53.238;10.394;2023-05-25T10:36:08;7.37;;;3.30;;
3309;SDS011;1667;53.238;10.394;2023-05-25T10:41:09;5.33;;;2.70;;
3309;SDS011;1667;53.238;10.394;2023-05-25T10:46:08;7.83;;;3.00;;
3309;SDS011;1667;53.238;10.394;2023-05-25T10:51:09;6.07;;;2.70;;
3309;SDS011;1667;53.238;10.394;2023-05-25T10:56:08;9.17;;;2.80;;
3309;SDS011;1667;53.238;10.394;2023-05-25T11:01:09;8.83;;;2.87;;
3309;SDS011;1667;53.238;10.394;2023-05-25T11:06:11;8.13;;;3.70;;
3309;SDS011;1667;53.238;10.394;2023-05-25T11:11:11;8.73;;;2.60;;
3309;SDS011;1667;53.238;10.394;2023-05-25T11:16:19;8.80;;;2.70;;
3309;SDS011;1667;53.238;10.394;2023-05-25T11:21:21;11.43;;;3.67;;
3309;SDS011;1667;53.238;10.394;2023-05-25T11:26:50;6.37;;;3.10;;
3309;SDS011;1667;53.238;10.394;2023-05-25T11:31:53;10.77;;;4.00;;
3309;SDS011;1667;53.238;10.394;2023-05-25T11:36:55;6.80;;;3.10;;
3309;SDS011;1667;53.238;10.394;2023-05-25T11:42:00;9.50;;;4.23;;
3309;SDS011;1667;53.238;10.394;2023-05-25T11:47:01;10.70;;;3.93;;
3309;SDS011;1667;53.238;10.394;2023-05-25T11:52:05;10.30;;;3.23;;
3309;SDS011;1667;53.238;10.394;2023-05-25T11:57:11;8.80;;;3.30;;
3309;SDS011;1667;53.238;10.394;2023-05-25T12:02:11;12.10;;;3.90;;
3309;SDS011;1667;53.238;10.394;2023-05-25T12:07:11;7.53;;;3.90;;
3309;SDS011;1667;53.238;10.394;2023-05-25T12:12:09;8.50;;;3.00;;
3309;SDS011;1667;53.238;10.394;2023-05-25T12:17:08;9.80;;;3.80;;
3309;SDS011;1667;53.238;10.394;2023-05-25T12:22:07;13.30;;;4.07;;
3309;SDS011;1667;53.238;10.394;2023-05-25T12:27:16;14.20;;;4.37;;
3309;SDS011;1667;53.238;10.394;2023-05-25T12:32:16;11.00;;;4.47;;
3309;SDS011;1667;53.238;10.394;2023-05-25T12:37:17;11.23;;;5.20;;
3309;SDS011;1667;53.238;10.394;2023-05-25T12:42:18;14.03;;;4.40;;
3309;SDS011;1667;53.238;10.394;2023-05-25T12:47:18;14.03;;;5.30;;
3309;SDS011;1667;53.238;10.394;2023-05-25T12:52:31;11.70;;;4.83;;
3309;SDS011;1667;53.238;10.394;2023-05-25T12:57:34;12.73;;;3.70;;
3309;SDS011;1667;53.238;10.394;2023-05-25T13:02:32;16.53;;;5.30;;
3309;SDS011;1667;53.238;10.394;2023-05-25T13:07:31;13.83;;;5.00;;
3309;SDS011;1667;53.238;10.394;2023-05-25T13:12:29;12.23;;;4.30;;
3309;SDS011;1667;53.238;10.394;2023-05-25T13:17:29;14.40;;;4.70;;
3309;SDS011;1667;53.238;10.394;2023-05-25T13:22:28;13.70;;;5.30;;
3309;SDS011;1667;53.238;10.394;2023-05-25T13:27:26;18.27;;;4.90;;
3309;SDS011;1667;53.238;10.394;2023-05-25T13:32:25;14.10;;;5.40;;
3309;SDS011;1667;53.238;10.394;2023-05-25T13:37:28;11.60;;;4.63;;
3309;SDS011;1667;53.238;10.394;2023-05-25T13:42:28;18.20;;;4.80;;
3309;SDS011;1667;53.238;10.394;2023-05-25T13:47:27;13.43;;;4.90;;
3309;SDS011;1667;53.238;10.394;2023-05-25T13:52:26;16.90;;;5.57;;
3309;SDS011;1667;53.238;10.394;2023-05-25T13:57:26;8.93;;;4.13;;
3309;SDS011;1667;53.238;10.394;2023-05-25T14:02:24;10.70;;;4.37;;
3309;SDS011;1667;53.238;10.394;2023-05-25T14:07:23;15.20;;;5.60;;
3309;SDS011;1667;53.238;10.394;2023-05-25T14:12:21;10.83;;;4.73;;
3309;SDS011;1667;53.238;10.394;2023-05-25T14:17:21;10.23;;;3.20;;
3309;SDS011;1667;53.238;10.394;2023-05-25T14:22:21;6.70;;;2.87;;
3309;SDS011;1667;53.238;10.394;2023-05-25T14:27:19;12.93;;;4.20;;
3309;SDS011;1667;53.238;10.394;2023-05-25T14:32:18;14.83;;;3.80;;
3309;SDS011;1667;53.238;10.394;2023-05-25T14:37:18;12.00;;;5.00;;
3309;SDS011;1667;53.238;10.394;2023-05-25T14:42:16;17.67;;;5.77;;
3309;SDS011;1667;53.238;10.394;2023-05-25T14:47:14;17.03;;;5.90;;
3309;SDS011;1667;53.238;10.394;2023-05-25T14:52:13;17.00;;;5.23;;
3309;SDS011;1667;53.238;10.394;2023-05-25T14:57:13;17.27;;;5.80;;
3309;SDS011;1667;53.238;10.394;2023-05-25T15:02:12;15.60;;;5.27;;
3309;SDS011;1667;53.238;10.394;2023-05-25T15:07:11;13.63;;;4.43;;
3309;SDS011;1667;53.238;10.394;2023-05-25T15:12:10;9.20;;;3.43;;
3309;SDS011;1667;53.238;10.394;2023-05-25T15:17:10;12.60;;;4.27;;
3309;SDS011;1667;53.238;10.394;2023-05-25T15:22:08;14.90;;;4.03;;
3309;SDS011;1667;53.238;10.394;2023-05-25T15:27:06;24.03;;;5.10;;
3309;SDS011;1667;53.238;10.394;2023-05-25T15:32:05;16.67;;;5.60;;
3309;SDS011;1667;53.238;10.394;2023-05-25T15:37:06;17.73;;;5.23;;
3309;SDS011;1667;53.238;10.394;2023-05-25T15:42:08;15.37;;;4.87;;
3309;SDS011;1667;53.238;10.394;2023-05-25T15:47:06;8.50;;;4.20;;
3309;SDS011;1667;53.238;10.394;2023-05-25T15:52:06;12.87;;;4.47;;
3309;SDS011;1667;53.238;10.394;2023-05-25T15:57:05;9.63;;;3.53;;
3309;SDS011;1667;53.238;10.394;2023-05-25T16:02:03;13.93;;;4.20;;
3309;SDS011;1667;53.238;10.394;2023-05-25T16:07:02;19.13;;;5.50;;
3309;SDS011;1667;53.238;10.394;2023-05-25T16:12:02;10.63;;;3.33;;
3309;SDS011;1667;53.238;10.394;2023-05-25T16:17:02;19.00;;;5.30;;
3309;SDS011;1667;53.238;10.394;2023-05-25T16:22:01;23.50;;;5.10;;
3309;SDS011;1667;53.238;10.394;2023-05-25T16:26:59;21.93;;;5.63;;
3309;SDS011;1667;53.238;10.394;2023-05-25T16:32:00;17.87;;;5.80;;
3309;SDS011;1667;53.238;10.394;2023-05-25T16:36:58;19.03;;;5.47;;
3309;SDS011;1667;53.238;10.394;2023-05-25T16:41:56;12.73;;;4.10;;
3309;SDS011;1667;53.238;10.394;2023-05-25T16:46:55;16.27;;;5.10;;
3309;SDS011;1667;53.238;10.394;2023-05-25T16:51:55;13.23;;;4.53;;
3309;SDS011;1667;53.238;10.394;2023-05-25T16:56:53;12.00;;;4.13;;
3309;SDS011;1667;53.238;10.394;2023-05-25T17:01:52;13.67;;;4.83;;
3309;SDS011;1667;53.238;10.394;2023-05-25T17:06:51;17.57;;;5.30;;
3309;SDS011;1667;53.238;10.394;2023-05-25T17:11:51;19.70;;;5.53;;
3309;SDS011;1667;53.238;10.394;2023-05-25T17:16:49;16.90;;;5.67;;
3309;SDS011;1667;53.238;10.394;2023-05-25T17:21:48;15.17;;;5.20;;
3309;SDS011;1667;53.238;10.394;2023-05-25T17:26:46;17.33;;;4.93;;
3309;SDS011;1667;53.238;10.394;2023-05-25T17:31:48;20.13;;;5.43;;
3309;SDS011;1667;53.238;10.394;2023-05-25T17:36:47;19.63;;;5.40;;
3309;SDS011;1667;53.238;10.394;2023-05-25T17:41:45;17.13;;;5.23;;
3309;SDS011;1667;53.238;10.394;2023-05-25T17:46:45;14.10;;;3.70;;
3309;SDS011;1667;53.238;10.394;2023-05-25T17:51:45;16.10;;;5.63;;
3309;SDS011;1667;53.238;10.394;2023-05-25T17:56:43;15.73;;;4.63;;
3309;SDS011;1667;53.238;10.394;2023-05-25T18:01:42;16.03;;;5.20;;
3309;SDS011;1667;53.238;10.394;2023-05-25T18:06:40;16.67;;;4.43;;
3309;SDS011;1667;53.238;10.394;2023-05-25T18:11:40;10.50;;;3.70;;
3309;SDS011;1667;53.238;10.394;2023-05-25T18:16:39;11.47;;;4.30;;
3309;SDS011;1667;53.238;10.394;2023-05-25T18:21:40;15.27;;;4.40;;
3309;SDS011;1667;53.238;10.394;2023-05-25T18:26:38;19.63;;;6.13;;
3309;SDS011;1667;53.238;10.394;2023-05-25T18:31:39;10.50;;;3.50;;
3309;SDS011;1667;53.238;10.394;2023-05-25T18:36:41;13.80;;;3.97;;
3309;SDS011;1667;53.238;10.394;2023-05-25T18:41:41;8.57;;;3.97;;
3309;SDS011;1667;53.238;10.394;2023-05-25T18:46:39;17.27;;;4.67;;
3309;SDS011;1667;53.238;10.394;2023-05-25T18:51:39;13.37;;;4.50;;
3309;SDS011;1667;53.238;10.394;2023-05-25T18:56:38;22.07;;;5.17;;
3309;SDS011;1667;53.238;10.394;2023-05-25T19:01:38;14.47;;;3.97;;
3309;SDS011;1667;53.238;10.394;2023-05-25T19:06:36;17.87;;;4.00;;
3309;SDS011;1667;53.238;10.394;2023-05-25T19:11:35;19.80;;;4.70;;
3309;SDS011;1667;53.238;10.394;2023-05-25T19:16:34;9.20;;;3.30;;
3309;SDS011;1667;53.238;10.394;2023-05-25T19:21:33;16.80;;;4.70;;
3309;SDS011;1667;53.238;10.394;2023-05-25T19:26:32;10.73;;;3.57;;
3309;SDS011;1667;53.238;10.394;2023-05-25T19:31:32;18.73;;;4.10;;
3309;SDS011;1667;53.238;10.394;2023-05-25T19:36:32;15.20;;;3.77;;
3309;SDS011;1667;53.238;10.394;2023-05-25T19:41:30;12.87;;;3.77;;
3309;SDS011;1667;53.238;10.394;2023-05-25T19:46:29;19.63;;;4.73;;
3309;SDS011;1667;53.238;10.394;2023-05-25T19:51:28;15.43;;;4.33;;
3309;SDS011;1667;53.238;10.394;2023-05-25T19:56:28;11.40;;;3.47;;
3309;SDS011;1667;53.238;10.394;2023-05-25T20:01:26;13.03;;;4.87;;
3309;SDS011;1667;53.238;10.394;2023-05-25T20:06:25;11.33;;;3.07;;
3309;SDS011;1667;53.238;10.394;2023-05-25T20:11:23;9.47;;;3.20;;
3309;SDS011;1667;53.238;10.394;2023-05-25T20:16:24;12.77;;;3.50;;
3309;SDS011;1667;53.238;10.394;2023-05-25T20:21:22;21.13;;;4.47;;
3309;SDS011;1667;53.238;10.394;2023-05-25T20:26:21;23.33;;;4.90;;
3309;SDS011;1667;53.238;10.394;2023-05-25T20:31:20;12.93;;;4.30;;
3309;SDS011;1667;53.238;10.394;2023-05-25T20:36:19;10.53;;;3.20;;
3309;SDS011;1667;53.238;10.394;2023-05-25T20:41:18;21.13;;;4.30;;
3309;SDS011;1667;53.238;10.394;2023-05-25T20:46:17;12.30;;;3.90;;
3309;SDS011;1667;53.238;10.394;2023-05-25T20:51:15;12.03;;;4.43;;
3309;SDS011;1667;53.238;10.394;2023-05-25T20:56:15;10.97;;;4.17;;
3309;SDS011;1667;53.238;10.394;2023-05-25T21:01:13;13.20;;;3.73;;
3309;SDS011;1667;53.238;10.394;2023-05-25T21:06:12;20.37;;;4.43;;
3309;SDS011;1667;53.238;10.394;2023-05-25T21:11:11;15.00;;;3.70;;
3309;SDS011;1667;53.238;10.394;2023-05-25T21:16:10;14.67;;;4.60;;
3309;SDS011;1667;53.238;10.394;2023-05-25T21:21:09;15.40;;;4.90;;
3309;SDS011;1667;53.238;10.394;2023-05-25T21:26:07;8.40;;;2.43;;
3309;SDS011;1667;53.238;10.394;2023-05-25T21:31:06;15.00;;;4.63;;
3309;SDS011;1667;53.238;10.394;2023-05-25T21:42:07;13.80;;;3.80;;
3309;SDS011;1667;53.238;10.394;2023-05-25T21:47:06;14.90;;;4.13;;
3309;SDS011;1667;53.238;10.394;2023-05-25T21:52:04;20.43;;;4.40;;
3309;SDS011;1667;53.238;10.394;2023-05-25T21:57:03;17.03;;;4.63;;
3309;SDS011;1667;53.238;10.394;2023-05-25T22:02:03;16.73;;;4.27;;
3309;SDS011;1667;53.238;10.394;2023-05-25T22:07:02;17.73;;;4.50;;
3309;SDS011;1667;53.238;10.394;2023-05-25T22:12:01;20.50;;;4.80;;
3309;SDS011;1667;53.238;10.394;2023-05-25T22:17:00;21.67;;;4.80;;
3309;SDS011;1667;53.238;10.394;2023-05-25T22:22:00;11.43;;;3.67;;
3309;SDS011;1667;53.238;10.394;2023-05-25T22:26:58;9.10;;;3.47;;
3309;SDS011;1667;53.238;10.394;2023-05-25T22:31:58;14.60;;;4.10;;
3309;SDS011;1667;53.238;10.394;2023-05-25T22:36:57;4.77;;;2.30;;
3309;SDS011;1667;53.238;10.394;2023-05-25T22:41:57;11.27;;;3.30;;
3309;SDS011;1667;53.238;10.394;2023-05-25T22:46:55;17.10;;;4.10;;
3309;SDS011;1667;53.238;10.394;2023-05-25T22:51:54;24.33;;;5.50;;
3309;SDS011;1667;53.238;10.394;2023-05-25T22:56:53;7.40;;;2.93;;
3309;SDS011;1667;53.238;10.394;2023-05-25T23:01:52;17.17;;;3.43;;
3309;SDS011;1667;53.238;10.394;2023-05-25T23:06:51;13.03;;;3.67;;
3309;SDS011;1667;53.238;10.394;2023-05-25T23:11:50;11.40;;;2.77;;
3309;SDS011;1667;53.238;10.394;2023-05-25T23:16:48;13.97;;;3.40;;
3309;SDS011;1667;53.238;10.394;2023-05-25T23:21:48;13.47;;;3.60;;
3309;SDS011;1667;53.238;10.394;2023-05-25T23:26:47;12.77;;;4.33;;
3309;SDS011;1667;53.238;10.394;2023-05-25T23:31:46;7.13;;;3.33;;
3309;SDS011;1667;53.238;10.394;2023-05-25T23:36:45;13.37;;;4.27;;
3309;SDS011;1667;53.238;10.394;2023-05-25T23:41:44;11.07;;;4.20;;
3309;SDS011;1667;53.238;10.394;2023-05-25T23:46:43;18.03;;;4.60;;
3309;SDS011;1667;53.238;10.394;2023-05-25T23:51:41;19.77;;;3.80;;
3309;SDS011;1667;53.238;10.394;2023-05-25T23:56:40;17.80;;;3.93;;
